createdAt,value
2018-10-17T00:01:26.098Z,23.4
2018-10-17T00:11:25.267Z,23.4
2018-10-17T00:21:24.479Z,23.3
2018-10-17T00:31:23.698Z,23.3
2018-10-17T00:41:22.967Z,23.3
2018-10-17T00:51:22.139Z,23.2
2018-10-17T01:01:21.353Z,23.2
2018-10-17T01:11:20.570Z,23.1
2018-10-17T01:21:19.794Z,23.2
2018-10-17T01:31:19.009Z,23.1
2018-10-17T01:41:18.358Z,23.1
2018-10-17T01:51:17.444Z,23.1
2018-10-17T02:01:16.666Z,23.1
2018-10-17T02:11:15.997Z,23.1
2018-10-17T02:21:15.101Z,23.1
2018-10-17T02:31:14.351Z,23.3
2018-10-17T02:41:13.684Z,23.2
2018-10-17T02:51:12.751Z,23.2
2018-10-17T03:01:12.053Z,23.2
2018-10-17T03:11:11.374Z,23.2
2018-10-17T03:21:10.405Z,23.1
2018-10-17T03:31:09.709Z,23.1
2018-10-17T03:41:08.936Z,23.1
2018-10-17T03:51:08.063Z,23.1
2018-10-17T04:01:07.312Z,23.1
2018-10-17T04:11:06.557Z,23.1
2018-10-17T04:21:05.728Z,23.1
2018-10-17T04:31:05.013Z,23.1
2018-10-17T04:41:04.285Z,23.1
2018-10-17T04:51:03.381Z,22.9
2018-10-17T05:01:02.733Z,23.3
2018-10-17T05:11:01.866Z,23.4
2018-10-17T05:21:01.039Z,23.4
2018-10-17T05:31:00.297Z,23.1
2018-10-17T05:40:59.486Z,23.2
2018-10-17T05:50:58.692Z,23.4
2018-10-17T06:00:57.932Z,23.8
2018-10-17T06:10:57.178Z,24.1
2018-10-17T06:20:56.349Z,24.4
2018-10-17T06:30:55.593Z,24.6
2018-10-17T06:40:54.791Z,24.9
2018-10-17T06:50:54.012Z,25.1
2018-10-17T07:00:53.248Z,25.6
2018-10-17T07:10:52.471Z,25.8
2018-10-17T07:20:51.676Z,26.1
2018-10-17T07:30:50.904Z,26.3
2018-10-17T07:40:50.118Z,26.5
2018-10-17T07:50:49.332Z,26.6
2018-10-17T08:00:48.552Z,26.8
2018-10-17T08:10:47.773Z,26.9
2018-10-17T08:20:46.993Z,27
2018-10-17T08:30:46.220Z,27.1
2018-10-17T08:40:45.439Z,27.2
2018-10-17T08:50:44.807Z,27.2
2018-10-17T09:00:43.878Z,27.2
2018-10-17T09:10:43.098Z,27.2
2018-10-17T09:20:42.637Z,27.1
2018-10-17T09:30:41.700Z,27.1
2018-10-17T09:40:40.767Z,27
2018-10-17T09:50:39.985Z,26.9
2018-10-17T10:00:39.203Z,26.6
2018-10-17T10:10:38.431Z,26.1
2018-10-17T10:20:37.648Z,26
2018-10-17T10:30:36.867Z,25.9
2018-10-17T10:40:36.115Z,25.8
2018-10-17T10:50:35.311Z,25.7
2018-10-17T11:00:34.533Z,25.4
2018-10-17T11:10:33.755Z,25.7
2018-10-17T11:20:32.969Z,25.8
2018-10-17T11:30:32.188Z,25.7
2018-10-17T11:40:31.503Z,25.4
2018-10-17T11:50:30.676Z,25.4
2018-10-17T12:00:29.853Z,25.7
2018-10-17T12:10:29.070Z,25.7
2018-10-17T12:20:28.290Z,25.7
2018-10-17T12:30:27.508Z,25.3
2018-10-17T12:40:26.830Z,25.4
2018-10-17T12:50:26.071Z,25.1
2018-10-17T13:00:25.167Z,25.3
2018-10-17T13:10:24.388Z,25.3
2018-10-17T13:20:23.609Z,25.5
2018-10-17T13:30:22.823Z,25.4
2018-10-17T13:40:22.046Z,25.4
2018-10-17T13:50:21.265Z,25.3
2018-10-17T14:00:20.484Z,25.5
2018-10-17T14:10:19.706Z,26
2018-10-17T14:20:18.986Z,25.9
2018-10-17T14:30:18.279Z,25.8
2018-10-17T14:40:17.365Z,25.7
2018-10-17T14:50:16.586Z,25.2
2018-10-17T15:00:15.812Z,25.3
2018-10-17T15:10:15.034Z,25.4
2018-10-17T15:20:14.243Z,25.3
2018-10-17T15:30:13.473Z,25.1
2018-10-17T15:40:12.677Z,25.1
2018-10-17T15:50:11.951Z,25.4
2018-10-17T16:00:11.192Z,25.7
2018-10-17T16:10:10.344Z,25.7
2018-10-17T16:20:09.596Z,25.4
2018-10-17T16:30:08.907Z,25.3
2018-10-17T16:40:08.012Z,25.4
2018-10-17T16:50:07.352Z,25.3
2018-10-17T17:00:06.553Z,25.3
2018-10-17T17:10:05.671Z,25.3
2018-10-17T17:20:04.892Z,25.3
2018-10-17T17:30:04.132Z,25.4
2018-10-17T17:40:03.342Z,25.3
2018-10-17T17:50:02.564Z,25
2018-10-17T18:00:01.784Z,24.9
2018-10-17T18:10:01.060Z,25
2018-10-17T18:20:00.231Z,25.5
2018-10-17T18:29:59.459Z,26.1
2018-10-17T18:39:58.732Z,26.1
2018-10-17T18:49:57.915Z,25.9
2018-10-17T18:59:57.121Z,25.6
2018-10-17T19:09:56.343Z,25
2018-10-17T19:19:55.564Z,24.8
2018-10-17T19:29:54.787Z,24.9
2018-10-17T19:39:54.013Z,24.6
2018-10-17T19:49:53.233Z,24.8
2018-10-17T19:59:52.462Z,25
2018-10-17T20:09:51.726Z,25.2
2018-10-17T20:19:50.900Z,25.1
2018-10-17T20:29:50.124Z,24.6
2018-10-17T20:39:49.348Z,24.4
2018-10-17T20:49:48.571Z,24.8
2018-10-17T20:59:47.791Z,24.6
2018-10-17T21:09:47.009Z,24.7
2018-10-17T21:19:46.237Z,24.5
2018-10-17T21:29:45.452Z,24.4
2018-10-17T21:39:44.773Z,24.4
2018-10-17T21:49:43.893Z,24.5
2018-10-17T21:59:43.118Z,24.6
2018-10-17T22:09:42.379Z,24.6
2018-10-17T22:19:41.596Z,24.6
2018-10-17T22:29:40.781Z,25
2018-10-17T22:39:39.996Z,24.9
2018-10-17T22:49:39.218Z,24.8
2018-10-17T22:59:38.445Z,24.4
2018-10-17T23:09:37.667Z,24.3
2018-10-17T23:19:36.888Z,24.1
2018-10-17T23:29:36.101Z,24.2
2018-10-17T23:39:35.334Z,24.1
2018-10-17T23:49:34.548Z,24.1
2018-10-17T23:59:33.764Z,24.1
